sensor_id;sensor_type;location;lat;lon;timestamp;P1;durP1;ratioP1;P2;durP2;ratioP2
462;SDS011;218;51.902;9.542;2022-08-01T00:01:58;6.87;;;6.40;;
462;SDS011;218;51.902;9.542;2022-08-01T00:04:25;6.20;;;5.70;;
462;SDS011;218;51.902;9.542;2022-08-01T00:06:52;6.60;;;6.20;;
462;SDS011;218;51.902;9.542;2022-08-01T00:09:19;6.30;;;5.90;;
462;SDS011;218;51.902;9.542;2022-08-01T00:11:46;6.40;;;5.97;;
462;SDS011;218;51.902;9.542;2022-08-01T00:14:13;7.50;;;7.00;;
462;SDS011;218;51.902;9.542;2022-08-01T00:16:40;7.10;;;6.67;;
462;SDS011;218;51.902;9.542;2022-08-01T00:19:09;6.60;;;6.00;;
462;SDS011;218;51.902;9.542;2022-08-01T00:21:37;7.90;;;6.60;;
462;SDS011;218;51.902;9.542;2022-08-01T00:24:04;6.80;;;6.40;;
462;SDS011;218;51.902;9.542;2022-08-01T00:26:32;6.93;;;6.33;;
462;SDS011;218;51.902;9.542;2022-08-01T00:28:59;6.20;;;5.80;;
462;SDS011;218;51.902;9.542;2022-08-01T00:31:26;6.80;;;6.03;;
462;SDS011;218;51.902;9.542;2022-08-01T00:33:53;7.40;;;6.80;;
462;SDS011;218;51.902;9.542;2022-08-01T00:36:22;6.53;;;5.93;;
462;SDS011;218;51.902;9.542;2022-08-01T00:38:49;7.00;;;6.50;;
462;SDS011;218;51.902;9.542;2022-08-01T00:41:16;7.40;;;6.70;;
462;SDS011;218;51.902;9.542;2022-08-01T00:43:43;7.53;;;7.03;;
462;SDS011;218;51.902;9.542;2022-08-01T00:46:10;6.70;;;6.30;;
462;SDS011;218;51.902;9.542;2022-08-01T00:48:37;6.27;;;5.73;;
462;SDS011;218;51.902;9.542;2022-08-01T00:51:05;6.83;;;6.30;;
462;SDS011;218;51.902;9.542;2022-08-01T00:53:34;7.00;;;6.50;;
462;SDS011;218;51.902;9.542;2022-08-01T00:56:02;6.63;;;5.90;;
462;SDS011;218;51.902;9.542;2022-08-01T00:58:30;5.90;;;5.50;;
462;SDS011;218;51.902;9.542;2022-08-01T01:00:58;6.23;;;5.83;;
462;SDS011;218;51.902;9.542;2022-08-01T01:03:25;6.20;;;5.70;;
462;SDS011;218;51.902;9.542;2022-08-01T01:05:55;6.80;;;6.30;;
462;SDS011;218;51.902;9.542;2022-08-01T01:08:30;5.67;;;5.27;;
462;SDS011;218;51.902;9.542;2022-08-01T01:11:09;6.13;;;5.53;;
462;SDS011;218;51.902;9.542;2022-08-01T01:13:41;7.93;;;5.40;;
462;SDS011;218;51.902;9.542;2022-08-01T01:16:13;5.70;;;5.20;;
462;SDS011;218;51.902;9.542;2022-08-01T01:18:43;5.63;;;5.23;;
462;SDS011;218;51.902;9.542;2022-08-01T01:24:20;6.43;;;6.00;;
462;SDS011;218;51.902;9.542;2022-08-01T01:26:57;6.10;;;5.63;;
462;SDS011;218;51.902;9.542;2022-08-01T01:29:35;6.27;;;5.87;;
462;SDS011;218;51.902;9.542;2022-08-01T01:32:07;5.97;;;5.37;;
462;SDS011;218;51.902;9.542;2022-08-01T01:34:43;6.00;;;5.50;;
462;SDS011;218;51.902;9.542;2022-08-01T01:37:14;5.70;;;5.30;;
462;SDS011;218;51.902;9.542;2022-08-01T01:39:44;5.30;;;4.90;;
462;SDS011;218;51.902;9.542;2022-08-01T01:42:15;5.80;;;5.30;;
462;SDS011;218;51.902;9.542;2022-08-01T01:44:46;5.83;;;5.33;;
462;SDS011;218;51.902;9.542;2022-08-01T01:47:16;5.53;;;5.10;;
462;SDS011;218;51.902;9.542;2022-08-01T01:49:43;6.10;;;5.50;;
462;SDS011;218;51.902;9.542;2022-08-01T01:52:12;5.47;;;5.07;;
462;SDS011;218;51.902;9.542;2022-08-01T01:54:44;5.97;;;5.57;;
462;SDS011;218;51.902;9.542;2022-08-01T01:57:13;5.97;;;5.60;;
462;SDS011;218;51.902;9.542;2022-08-01T01:59:42;5.87;;;5.43;;
462;SDS011;218;51.902;9.542;2022-08-01T02:02:13;5.60;;;5.10;;
462;SDS011;218;51.902;9.542;2022-08-01T02:04:42;5.70;;;5.30;;
462;SDS011;218;51.902;9.542;2022-08-01T02:07:11;5.47;;;5.17;;
462;SDS011;218;51.902;9.542;2022-08-01T02:09:42;5.10;;;4.70;;
462;SDS011;218;51.902;9.542;2022-08-01T02:12:12;5.40;;;4.90;;
462;SDS011;218;51.902;9.542;2022-08-01T02:14:41;5.77;;;5.00;;
462;SDS011;218;51.902;9.542;2022-08-01T02:17:12;5.73;;;5.33;;
462;SDS011;218;51.902;9.542;2022-08-01T02:19:43;5.30;;;4.90;;
462;SDS011;218;51.902;9.542;2022-08-01T02:22:11;6.43;;;5.00;;
462;SDS011;218;51.902;9.542;2022-08-01T02:24:42;4.67;;;4.47;;
462;SDS011;218;51.902;9.542;2022-08-01T02:27:17;5.90;;;5.40;;
462;SDS011;218;51.902;9.542;2022-08-01T02:29:56;5.17;;;4.77;;
462;SDS011;218;51.902;9.542;2022-08-01T02:32:27;5.47;;;4.77;;
462;SDS011;218;51.902;9.542;2022-08-01T02:34:57;5.10;;;4.70;;
462;SDS011;218;51.902;9.542;2022-08-01T02:37:29;5.70;;;5.20;;
462;SDS011;218;51.902;9.542;2022-08-01T02:40:00;5.00;;;4.57;;
462;SDS011;218;51.902;9.542;2022-08-01T02:42:30;5.00;;;4.60;;
462;SDS011;218;51.902;9.542;2022-08-01T02:44:58;6.07;;;5.07;;
462;SDS011;218;51.902;9.542;2022-08-01T02:47:29;8.47;;;5.40;;
462;SDS011;218;51.902;9.542;2022-08-01T02:49:58;5.60;;;5.20;;
462;SDS011;218;51.902;9.542;2022-08-01T02:52:27;5.20;;;4.83;;
462;SDS011;218;51.902;9.542;2022-08-01T02:54:56;6.83;;;4.90;;
462;SDS011;218;51.902;9.542;2022-08-01T02:57:24;5.90;;;5.23;;
462;SDS011;218;51.902;9.542;2022-08-01T02:59:53;4.73;;;4.43;;
462;SDS011;218;51.902;9.542;2022-08-01T03:02:22;4.80;;;4.23;;
462;SDS011;218;51.902;9.542;2022-08-01T03:04:51;5.07;;;4.67;;
462;SDS011;218;51.902;9.542;2022-08-01T03:07:20;5.57;;;5.17;;
462;SDS011;218;51.902;9.542;2022-08-01T03:09:49;5.13;;;4.80;;
462;SDS011;218;51.902;9.542;2022-08-01T03:12:18;4.40;;;4.10;;
462;SDS011;218;51.902;9.542;2022-08-01T03:14:49;5.27;;;4.70;;
462;SDS011;218;51.902;9.542;2022-08-01T03:17:20;4.83;;;4.53;;
462;SDS011;218;51.902;9.542;2022-08-01T03:19:50;9.73;;;4.73;;
462;SDS011;218;51.902;9.542;2022-08-01T03:22:20;5.10;;;4.60;;
462;SDS011;218;51.902;9.542;2022-08-01T03:24:51;5.27;;;4.80;;
462;SDS011;218;51.902;9.542;2022-08-01T03:27:19;5.23;;;4.70;;
462;SDS011;218;51.902;9.542;2022-08-01T03:29:49;5.23;;;4.67;;
462;SDS011;218;51.902;9.542;2022-08-01T03:32:17;5.13;;;4.73;;
462;SDS011;218;51.902;9.542;2022-08-01T03:34:46;5.00;;;4.50;;
462;SDS011;218;51.902;9.542;2022-08-01T03:37:17;7.80;;;4.50;;
462;SDS011;218;51.902;9.542;2022-08-01T03:39:52;4.70;;;4.40;;
462;SDS011;218;51.902;9.542;2022-08-01T03:42:24;5.33;;;4.57;;
462;SDS011;218;51.902;9.542;2022-08-01T03:44:58;4.73;;;4.30;;
462;SDS011;218;51.902;9.542;2022-08-01T03:47:29;7.47;;;5.13;;
462;SDS011;218;51.902;9.542;2022-08-01T03:49:58;4.50;;;3.87;;
462;SDS011;218;51.902;9.542;2022-08-01T03:52:30;4.30;;;4.00;;
462;SDS011;218;51.902;9.542;2022-08-01T03:54:59;4.20;;;3.90;;
462;SDS011;218;51.902;9.542;2022-08-01T03:57:30;4.00;;;3.70;;
462;SDS011;218;51.902;9.542;2022-08-01T03:59:58;4.80;;;4.50;;
462;SDS011;218;51.902;9.542;2022-08-01T04:02:26;4.20;;;3.90;;
462;SDS011;218;51.902;9.542;2022-08-01T04:04:54;5.03;;;3.90;;
462;SDS011;218;51.902;9.542;2022-08-01T04:07:22;4.43;;;4.03;;
462;SDS011;218;51.902;9.542;2022-08-01T04:09:51;4.13;;;3.83;;
462;SDS011;218;51.902;9.542;2022-08-01T04:12:19;4.50;;;4.10;;
462;SDS011;218;51.902;9.542;2022-08-01T04:14:46;4.77;;;4.47;;
462;SDS011;218;51.902;9.542;2022-08-01T04:17:13;4.03;;;3.73;;
462;SDS011;218;51.902;9.542;2022-08-01T04:19:41;3.40;;;3.20;;
462;SDS011;218;51.902;9.542;2022-08-01T04:22:09;3.60;;;3.40;;
462;SDS011;218;51.902;9.542;2022-08-01T04:24:37;3.70;;;3.50;;
462;SDS011;218;51.902;9.542;2022-08-01T04:27:08;4.07;;;3.63;;
462;SDS011;218;51.902;9.542;2022-08-01T04:29:39;4.53;;;4.13;;
462;SDS011;218;51.902;9.542;2022-08-01T04:32:10;4.60;;;4.30;;
462;SDS011;218;51.902;9.542;2022-08-01T04:34:39;3.87;;;3.57;;
462;SDS011;218;51.902;9.542;2022-08-01T04:37:12;4.30;;;4.00;;
462;SDS011;218;51.902;9.542;2022-08-01T04:39:42;4.07;;;3.77;;
462;SDS011;218;51.902;9.542;2022-08-01T04:42:12;4.00;;;3.70;;
462;SDS011;218;51.902;9.542;2022-08-01T04:44:41;3.47;;;3.27;;
462;SDS011;218;51.902;9.542;2022-08-01T04:47:08;4.33;;;3.47;;
462;SDS011;218;51.902;9.542;2022-08-01T04:49:36;4.30;;;3.90;;
462;SDS011;218;51.902;9.542;2022-08-01T04:52:04;3.67;;;3.37;;
462;SDS011;218;51.902;9.542;2022-08-01T04:54:33;3.90;;;3.60;;
462;SDS011;218;51.902;9.542;2022-08-01T04:57:02;4.27;;;3.97;;
462;SDS011;218;51.902;9.542;2022-08-01T04:59:31;4.93;;;4.50;;
462;SDS011;218;51.902;9.542;2022-08-01T05:02:08;3.87;;;3.67;;
462;SDS011;218;51.902;9.542;2022-08-01T05:04:37;4.47;;;4.00;;
462;SDS011;218;51.902;9.542;2022-08-01T05:07:06;3.20;;;2.90;;
462;SDS011;218;51.902;9.542;2022-08-01T05:09:33;3.83;;;3.40;;
462;SDS011;218;51.902;9.542;2022-08-01T05:12:02;3.77;;;3.47;;
462;SDS011;218;51.902;9.542;2022-08-01T05:14:32;4.03;;;3.70;;
462;SDS011;218;51.902;9.542;2022-08-01T05:16:59;3.87;;;3.40;;
462;SDS011;218;51.902;9.542;2022-08-01T05:19:31;3.90;;;3.60;;
462;SDS011;218;51.902;9.542;2022-08-01T05:21:58;3.80;;;3.50;;
462;SDS011;218;51.902;9.542;2022-08-01T05:24:26;3.70;;;3.50;;
462;SDS011;218;51.902;9.542;2022-08-01T05:26:54;3.20;;;3.00;;
462;SDS011;218;51.902;9.542;2022-08-01T05:29:22;3.17;;;2.97;;
462;SDS011;218;51.902;9.542;2022-08-01T05:31:51;3.10;;;2.90;;
462;SDS011;218;51.902;9.542;2022-08-01T05:34:19;4.00;;;3.60;;
462;SDS011;218;51.902;9.542;2022-08-01T05:36:46;3.07;;;2.77;;
462;SDS011;218;51.902;9.542;2022-08-01T05:39:14;4.00;;;3.30;;
462;SDS011;218;51.902;9.542;2022-08-01T05:41:41;2.80;;;2.60;;
462;SDS011;218;51.902;9.542;2022-08-01T05:44:08;3.10;;;2.90;;
462;SDS011;218;51.902;9.542;2022-08-01T05:46:36;4.00;;;3.30;;
462;SDS011;218;51.902;9.542;2022-08-01T05:49:04;3.60;;;3.30;;
462;SDS011;218;51.902;9.542;2022-08-01T05:51:32;2.97;;;2.77;;
462;SDS011;218;51.902;9.542;2022-08-01T05:53:59;3.97;;;3.03;;
462;SDS011;218;51.902;9.542;2022-08-01T05:56:27;3.07;;;2.87;;
462;SDS011;218;51.902;9.542;2022-08-01T05:58:54;6.27;;;2.73;;
462;SDS011;218;51.902;9.542;2022-08-01T06:01:21;5.90;;;2.57;;
462;SDS011;218;51.902;9.542;2022-08-01T06:03:48;3.00;;;2.73;;
462;SDS011;218;51.902;9.542;2022-08-01T06:06:17;2.23;;;2.13;;
462;SDS011;218;51.902;9.542;2022-08-01T06:08:44;3.10;;;2.87;;
462;SDS011;218;51.902;9.542;2022-08-01T06:11:11;4.23;;;2.60;;
462;SDS011;218;51.902;9.542;2022-08-01T06:13:38;2.37;;;2.20;;
462;SDS011;218;51.902;9.542;2022-08-01T06:16:06;2.27;;;2.17;;
462;SDS011;218;51.902;9.542;2022-08-01T06:18:33;2.67;;;2.47;;
462;SDS011;218;51.902;9.542;2022-08-01T06:21:00;2.30;;;1.87;;
462;SDS011;218;51.902;9.542;2022-08-01T06:23:28;2.10;;;2.00;;
462;SDS011;218;51.902;9.542;2022-08-01T06:26:01;2.73;;;1.70;;
462;SDS011;218;51.902;9.542;2022-08-01T06:28:28;1.80;;;1.70;;
462;SDS011;218;51.902;9.542;2022-08-01T06:30:55;2.03;;;1.93;;
462;SDS011;218;51.902;9.542;2022-08-01T06:33:24;3.13;;;1.90;;
462;SDS011;218;51.902;9.542;2022-08-01T06:35:51;2.00;;;1.90;;
462;SDS011;218;51.902;9.542;2022-08-01T06:38:18;2.40;;;2.20;;
462;SDS011;218;51.902;9.542;2022-08-01T06:40:47;2.33;;;2.13;;
462;SDS011;218;51.902;9.542;2022-08-01T06:43:14;5.20;;;2.43;;
462;SDS011;218;51.902;9.542;2022-08-01T06:45:41;2.40;;;2.30;;
462;SDS011;218;51.902;9.542;2022-08-01T06:48:08;2.40;;;2.30;;
462;SDS011;218;51.902;9.542;2022-08-01T06:50:35;2.60;;;2.40;;
462;SDS011;218;51.902;9.542;2022-08-01T06:53:03;3.03;;;2.70;;
462;SDS011;218;51.902;9.542;2022-08-01T06:55:30;3.07;;;2.87;;
462;SDS011;218;51.902;9.542;2022-08-01T06:57:59;2.23;;;2.10;;
462;SDS011;218;51.902;9.542;2022-08-01T07:00:26;2.33;;;2.20;;
462;SDS011;218;51.902;9.542;2022-08-01T07:02:54;3.27;;;2.97;;
462;SDS011;218;51.902;9.542;2022-08-01T07:05:22;3.37;;;2.93;;
462;SDS011;218;51.902;9.542;2022-08-01T07:07:49;3.20;;;2.77;;
462;SDS011;218;51.902;9.542;2022-08-01T07:10:16;3.00;;;2.80;;
462;SDS011;218;51.902;9.542;2022-08-01T07:12:44;2.70;;;2.50;;
462;SDS011;218;51.902;9.542;2022-08-01T07:15:12;2.07;;;1.97;;
462;SDS011;218;51.902;9.542;2022-08-01T07:17:41;2.63;;;2.47;;
462;SDS011;218;51.902;9.542;2022-08-01T07:20:09;2.50;;;2.40;;
462;SDS011;218;51.902;9.542;2022-08-01T07:22:37;2.87;;;2.67;;
462;SDS011;218;51.902;9.542;2022-08-01T07:25:08;2.73;;;2.53;;
462;SDS011;218;51.902;9.542;2022-08-01T07:27:35;3.40;;;3.20;;
462;SDS011;218;51.902;9.542;2022-08-01T07:30:03;2.93;;;2.53;;
462;SDS011;218;51.902;9.542;2022-08-01T07:32:33;2.93;;;2.73;;
462;SDS011;218;51.902;9.542;2022-08-01T07:35:00;2.80;;;2.53;;
462;SDS011;218;51.902;9.542;2022-08-01T07:37:27;3.37;;;2.80;;
462;SDS011;218;51.902;9.542;2022-08-01T07:39:54;2.73;;;2.33;;
462;SDS011;218;51.902;9.542;2022-08-01T07:42:22;2.40;;;2.30;;
462;SDS011;218;51.902;9.542;2022-08-01T07:44:49;2.73;;;2.53;;
462;SDS011;218;51.902;9.542;2022-08-01T07:47:16;2.37;;;2.17;;
462;SDS011;218;51.902;9.542;2022-08-01T07:49:50;2.33;;;2.13;;
462;SDS011;218;51.902;9.542;2022-08-01T07:52:18;2.50;;;2.10;;
462;SDS011;218;51.902;9.542;2022-08-01T07:54:45;2.30;;;2.10;;
462;SDS011;218;51.902;9.542;2022-08-01T07:57:16;2.07;;;1.80;;
462;SDS011;218;51.902;9.542;2022-08-01T07:59:43;1.93;;;1.83;;
462;SDS011;218;51.902;9.542;2022-08-01T08:02:11;2.13;;;2.03;;
462;SDS011;218;51.902;9.542;2022-08-01T08:04:38;2.40;;;2.20;;
462;SDS011;218;51.902;9.542;2022-08-01T08:07:09;2.10;;;2.00;;
462;SDS011;218;51.902;9.542;2022-08-01T08:09:37;2.40;;;2.20;;
462;SDS011;218;51.902;9.542;2022-08-01T08:12:04;1.97;;;1.87;;
462;SDS011;218;51.902;9.542;2022-08-01T08:14:32;2.53;;;2.33;;
462;SDS011;218;51.902;9.542;2022-08-01T08:16:59;3.03;;;2.13;;
462;SDS011;218;51.902;9.542;2022-08-01T08:19:29;2.30;;;2.20;;
462;SDS011;218;51.902;9.542;2022-08-01T08:21:58;1.93;;;1.83;;
462;SDS011;218;51.902;9.542;2022-08-01T08:24:27;2.40;;;2.20;;
462;SDS011;218;51.902;9.542;2022-08-01T08:26:54;2.17;;;2.00;;
462;SDS011;218;51.902;9.542;2022-08-01T08:29:23;3.40;;;3.10;;
462;SDS011;218;51.902;9.542;2022-08-01T08:31:51;1.90;;;1.80;;
462;SDS011;218;51.902;9.542;2022-08-01T08:34:19;2.37;;;2.10;;
462;SDS011;218;51.902;9.542;2022-08-01T08:36:47;1.53;;;1.43;;
462;SDS011;218;51.902;9.542;2022-08-01T08:39:14;1.40;;;1.30;;
462;SDS011;218;51.902;9.542;2022-08-01T08:41:43;1.83;;;1.73;;
462;SDS011;218;51.902;9.542;2022-08-01T08:44:10;1.77;;;1.60;;
462;SDS011;218;51.902;9.542;2022-08-01T08:46:40;1.63;;;1.47;;
462;SDS011;218;51.902;9.542;2022-08-01T08:49:09;2.23;;;1.70;;
462;SDS011;218;51.902;9.542;2022-08-01T08:51:39;1.90;;;1.80;;
462;SDS011;218;51.902;9.542;2022-08-01T08:54:28;2.17;;;2.00;;
462;SDS011;218;51.902;9.542;2022-08-01T08:56:58;2.00;;;1.90;;
462;SDS011;218;51.902;9.542;2022-08-01T08:59:26;1.87;;;1.77;;
462;SDS011;218;51.902;9.542;2022-08-01T09:01:54;3.03;;;2.07;;
462;SDS011;218;51.902;9.542;2022-08-01T09:04:21;2.30;;;2.00;;
462;SDS011;218;51.902;9.542;2022-08-01T09:06:48;2.03;;;1.93;;
462;SDS011;218;51.902;9.542;2022-08-01T09:09:16;2.20;;;2.10;;
462;SDS011;218;51.902;9.542;2022-08-01T09:11:44;1.83;;;1.73;;
462;SDS011;218;51.902;9.542;2022-08-01T09:14:17;2.63;;;1.87;;
462;SDS011;218;51.902;9.542;2022-08-01T09:16:58;2.37;;;1.97;;
462;SDS011;218;51.902;9.542;2022-08-01T09:19:27;2.40;;;2.17;;
462;SDS011;218;51.902;9.542;2022-08-01T09:22:03;2.97;;;2.60;;
462;SDS011;218;51.902;9.542;2022-08-01T09:24:31;2.50;;;2.30;;
462;SDS011;218;51.902;9.542;2022-08-01T09:26:59;3.27;;;2.97;;
462;SDS011;218;51.902;9.542;2022-08-01T09:29:29;4.40;;;2.33;;
462;SDS011;218;51.902;9.542;2022-08-01T09:31:57;4.37;;;2.23;;
462;SDS011;218;51.902;9.542;2022-08-01T09:34:25;2.20;;;2.10;;
462;SDS011;218;51.902;9.542;2022-08-01T09:36:55;2.40;;;2.20;;
462;SDS011;218;51.902;9.542;2022-08-01T09:39:24;2.20;;;2.10;;
462;SDS011;218;51.902;9.542;2022-08-01T09:41:52;1.77;;;1.67;;
462;SDS011;218;51.902;9.542;2022-08-01T09:44:19;1.90;;;1.80;;
462;SDS011;218;51.902;9.542;2022-08-01T09:47:03;2.43;;;1.83;;
462;SDS011;218;51.902;9.542;2022-08-01T09:49:31;1.93;;;1.83;;
462;SDS011;218;51.902;9.542;2022-08-01T09:52:10;2.73;;;2.50;;
462;SDS011;218;51.902;9.542;2022-08-01T09:54:39;1.97;;;1.87;;
462;SDS011;218;51.902;9.542;2022-08-01T09:57:17;2.67;;;2.57;;
462;SDS011;218;51.902;9.542;2022-08-01T09:59:47;2.40;;;2.20;;
462;SDS011;218;51.902;9.542;2022-08-01T10:02:27;2.30;;;2.07;;
462;SDS011;218;51.902;9.542;2022-08-01T10:04:57;2.50;;;2.30;;
462;SDS011;218;51.902;9.542;2022-08-01T10:07:25;2.50;;;2.40;;
462;SDS011;218;51.902;9.542;2022-08-01T10:09:52;2.80;;;2.60;;
462;SDS011;218;51.902;9.542;2022-08-01T10:12:20;2.90;;;2.70;;
462;SDS011;218;51.902;9.542;2022-08-01T10:14:50;2.70;;;2.50;;
462;SDS011;218;51.902;9.542;2022-08-01T10:17:20;3.30;;;2.40;;
462;SDS011;218;51.902;9.542;2022-08-01T10:19:51;2.63;;;2.43;;
462;SDS011;218;51.902;9.542;2022-08-01T10:22:22;3.23;;;3.00;;
462;SDS011;218;51.902;9.542;2022-08-01T10:24:53;3.20;;;2.83;;
462;SDS011;218;51.902;9.542;2022-08-01T10:27:22;3.00;;;2.80;;
462;SDS011;218;51.902;9.542;2022-08-01T10:29:51;3.07;;;2.87;;
462;SDS011;218;51.902;9.542;2022-08-01T10:32:22;2.67;;;2.57;;
462;SDS011;218;51.902;9.542;2022-08-01T10:34:50;2.90;;;2.70;;
462;SDS011;218;51.902;9.542;2022-08-01T10:37:19;3.27;;;3.07;;
462;SDS011;218;51.902;9.542;2022-08-01T10:39:46;3.00;;;2.80;;
462;SDS011;218;51.902;9.542;2022-08-01T10:42:13;3.03;;;2.83;;
462;SDS011;218;51.902;9.542;2022-08-01T10:44:40;2.83;;;2.73;;
462;SDS011;218;51.902;9.542;2022-08-01T10:47:11;2.70;;;2.60;;
462;SDS011;218;51.902;9.542;2022-08-01T10:49:41;3.53;;;3.33;;
462;SDS011;218;51.902;9.542;2022-08-01T10:52:16;3.20;;;3.03;;
462;SDS011;218;51.902;9.542;2022-08-01T10:54:44;3.00;;;2.90;;
462;SDS011;218;51.902;9.542;2022-08-01T10:57:12;3.47;;;3.27;;
462;SDS011;218;51.902;9.542;2022-08-01T10:59:50;3.97;;;3.67;;
462;SDS011;218;51.902;9.542;2022-08-01T11:02:25;3.47;;;3.27;;
462;SDS011;218;51.902;9.542;2022-08-01T11:04:55;3.57;;;3.37;;
462;SDS011;218;51.902;9.542;2022-08-01T11:07:37;3.57;;;3.37;;
462;SDS011;218;51.902;9.542;2022-08-01T11:10:15;3.33;;;3.13;;
462;SDS011;218;51.902;9.542;2022-08-01T11:13:06;2.70;;;2.60;;
462;SDS011;218;51.902;9.542;2022-08-01T11:15:48;2.53;;;2.43;;
462;SDS011;218;51.902;9.542;2022-08-01T11:18:31;2.70;;;2.60;;
462;SDS011;218;51.902;9.542;2022-08-01T11:20:59;2.30;;;2.20;;
462;SDS011;218;51.902;9.542;2022-08-01T11:23:29;2.57;;;2.47;;
462;SDS011;218;51.902;9.542;2022-08-01T11:26:13;2.10;;;2.00;;
462;SDS011;218;51.902;9.542;2022-08-01T11:28:42;2.40;;;2.13;;
462;SDS011;218;51.902;9.542;2022-08-01T11:31:27;2.30;;;2.20;;
462;SDS011;218;51.902;9.542;2022-08-01T11:33:58;2.30;;;2.20;;
462;SDS011;218;51.902;9.542;2022-08-01T11:36:26;2.50;;;2.30;;
462;SDS011;218;51.902;9.542;2022-08-01T11:41:52;1.97;;;1.87;;
462;SDS011;218;51.902;9.542;2022-08-01T11:44:21;2.00;;;1.90;;
462;SDS011;218;51.902;9.542;2022-08-01T11:46:56;2.67;;;2.50;;
462;SDS011;218;51.902;9.542;2022-08-01T11:49:26;2.20;;;2.10;;
462;SDS011;218;51.902;9.542;2022-08-01T11:52:11;2.10;;;2.00;;
462;SDS011;218;51.902;9.542;2022-08-01T11:54:42;2.90;;;2.70;;
462;SDS011;218;51.902;9.542;2022-08-01T11:57:11;2.20;;;2.10;;
462;SDS011;218;51.902;9.542;2022-08-01T11:59:41;2.27;;;2.17;;
462;SDS011;218;51.902;9.542;2022-08-01T12:02:18;2.27;;;2.13;;
462;SDS011;218;51.902;9.542;2022-08-01T12:04:51;2.90;;;2.30;;
462;SDS011;218;51.902;9.542;2022-08-01T12:07:19;2.47;;;2.27;;
462;SDS011;218;51.902;9.542;2022-08-01T12:09:56;2.63;;;2.43;;
462;SDS011;218;51.902;9.542;2022-08-01T12:12:26;2.70;;;2.50;;
462;SDS011;218;51.902;9.542;2022-08-01T12:14:55;3.27;;;3.07;;
462;SDS011;218;51.902;9.542;2022-08-01T12:17:31;2.63;;;2.53;;
462;SDS011;218;51.902;9.542;2022-08-01T12:19:59;2.63;;;2.43;;
462;SDS011;218;51.902;9.542;2022-08-01T12:22:26;3.60;;;3.40;;
462;SDS011;218;51.902;9.542;2022-08-01T12:24:55;2.93;;;2.73;;
462;SDS011;218;51.902;9.542;2022-08-01T12:27:26;2.80;;;2.70;;
462;SDS011;218;51.902;9.542;2022-08-01T12:30:08;3.13;;;2.93;;
462;SDS011;218;51.902;9.542;2022-08-01T12:32:50;3.03;;;2.93;;
462;SDS011;218;51.902;9.542;2022-08-01T12:35:19;2.97;;;2.77;;
462;SDS011;218;51.902;9.542;2022-08-01T12:37:48;2.30;;;2.20;;
462;SDS011;218;51.902;9.542;2022-08-01T12:40:19;2.90;;;2.70;;
462;SDS011;218;51.902;9.542;2022-08-01T12:42:48;2.47;;;2.37;;
462;SDS011;218;51.902;9.542;2022-08-01T12:45:18;2.67;;;2.47;;
462;SDS011;218;51.902;9.542;2022-08-01T12:47:46;2.80;;;2.60;;
462;SDS011;218;51.902;9.542;2022-08-01T12:50:14;2.77;;;2.57;;
462;SDS011;218;51.902;9.542;2022-08-01T12:52:44;2.70;;;2.50;;
462;SDS011;218;51.902;9.542;2022-08-01T12:55:12;3.10;;;2.90;;
462;SDS011;218;51.902;9.542;2022-08-01T12:57:43;2.60;;;2.50;;
462;SDS011;218;51.902;9.542;2022-08-01T13:00:21;2.67;;;2.53;;
462;SDS011;218;51.902;9.542;2022-08-01T13:02:50;2.53;;;2.23;;
462;SDS011;218;51.902;9.542;2022-08-01T13:05:27;2.80;;;2.60;;
462;SDS011;218;51.902;9.542;2022-08-01T13:07:54;2.27;;;2.17;;
462;SDS011;218;51.902;9.542;2022-08-01T13:10:25;2.67;;;2.57;;
462;SDS011;218;51.902;9.542;2022-08-01T13:12:55;2.27;;;2.17;;
462;SDS011;218;51.902;9.542;2022-08-01T13:15:25;4.17;;;2.43;;
462;SDS011;218;51.902;9.542;2022-08-01T13:17:56;2.70;;;2.50;;
462;SDS011;218;51.902;9.542;2022-08-01T13:20:24;2.83;;;2.57;;
462;SDS011;218;51.902;9.542;2022-08-01T13:22:52;2.77;;;2.57;;
462;SDS011;218;51.902;9.542;2022-08-01T13:25:19;2.73;;;2.53;;
462;SDS011;218;51.902;9.542;2022-08-01T13:27:47;2.50;;;2.30;;
462;SDS011;218;51.902;9.542;2022-08-01T13:30:17;3.33;;;3.03;;
462;SDS011;218;51.902;9.542;2022-08-01T13:32:56;3.23;;;2.83;;
462;SDS011;218;51.902;9.542;2022-08-01T13:35:24;3.27;;;3.07;;
462;SDS011;218;51.902;9.542;2022-08-01T13:37:52;3.60;;;3.30;;
462;SDS011;218;51.902;9.542;2022-08-01T13:40:23;3.30;;;3.00;;
462;SDS011;218;51.902;9.542;2022-08-01T13:42:51;2.97;;;2.77;;
462;SDS011;218;51.902;9.542;2022-08-01T13:45:20;2.70;;;2.50;;
462;SDS011;218;51.902;9.542;2022-08-01T13:47:48;2.63;;;2.53;;
462;SDS011;218;51.902;9.542;2022-08-01T13:50:24;2.90;;;2.60;;
462;SDS011;218;51.902;9.542;2022-08-01T13:53:07;3.47;;;3.23;;
462;SDS011;218;51.902;9.542;2022-08-01T13:55:34;4.30;;;2.80;;
462;SDS011;218;51.902;9.542;2022-08-01T13:58:01;3.20;;;3.00;;
462;SDS011;218;51.902;9.542;2022-08-01T14:00:33;3.80;;;3.60;;
462;SDS011;218;51.902;9.542;2022-08-01T14:03:00;3.83;;;3.50;;
462;SDS011;218;51.902;9.542;2022-08-01T14:05:27;3.37;;;3.17;;
462;SDS011;218;51.902;9.542;2022-08-01T14:07:54;4.10;;;3.80;;
462;SDS011;218;51.902;9.542;2022-08-01T14:10:27;3.70;;;3.50;;
462;SDS011;218;51.902;9.542;2022-08-01T14:13:15;4.33;;;4.03;;
462;SDS011;218;51.902;9.542;2022-08-01T14:15:43;3.60;;;3.40;;
462;SDS011;218;51.902;9.542;2022-08-01T14:18:11;4.00;;;3.67;;
462;SDS011;218;51.902;9.542;2022-08-01T14:20:38;3.80;;;3.60;;
462;SDS011;218;51.902;9.542;2022-08-01T14:23:05;4.67;;;4.27;;
462;SDS011;218;51.902;9.542;2022-08-01T14:25:33;4.40;;;4.10;;
462;SDS011;218;51.902;9.542;2022-08-01T14:28:00;3.57;;;3.27;;
462;SDS011;218;51.902;9.542;2022-08-01T14:30:34;4.87;;;4.57;;
462;SDS011;218;51.902;9.542;2022-08-01T14:33:45;4.27;;;3.87;;
462;SDS011;218;51.902;9.542;2022-08-01T14:36:12;4.63;;;4.17;;
462;SDS011;218;51.902;9.542;2022-08-01T14:38:39;4.93;;;4.53;;
462;SDS011;218;51.902;9.542;2022-08-01T14:41:07;5.37;;;4.97;;
462;SDS011;218;51.902;9.542;2022-08-01T14:43:34;4.60;;;4.23;;
462;SDS011;218;51.902;9.542;2022-08-01T14:46:03;5.83;;;5.43;;
462;SDS011;218;51.902;9.542;2022-08-01T14:48:30;5.53;;;5.07;;
462;SDS011;218;51.902;9.542;2022-08-01T14:50:57;5.50;;;5.10;;
462;SDS011;218;51.902;9.542;2022-08-01T14:53:29;5.73;;;5.33;;
462;SDS011;218;51.902;9.542;2022-08-01T14:55:57;6.00;;;5.50;;
462;SDS011;218;51.902;9.542;2022-08-01T14:58:24;5.83;;;5.43;;
462;SDS011;218;51.902;9.542;2022-08-01T15:00:51;5.70;;;5.20;;
462;SDS011;218;51.902;9.542;2022-08-01T15:03:20;6.30;;;5.90;;
462;SDS011;218;51.902;9.542;2022-08-01T15:05:48;4.83;;;4.53;;
462;SDS011;218;51.902;9.542;2022-08-01T15:08:15;5.33;;;5.00;;
462;SDS011;218;51.902;9.542;2022-08-01T15:10:42;5.50;;;5.00;;
462;SDS011;218;51.902;9.542;2022-08-01T15:13:09;5.57;;;5.20;;
462;SDS011;218;51.902;9.542;2022-08-01T15:15:37;5.23;;;4.83;;
462;SDS011;218;51.902;9.542;2022-08-01T15:18:04;5.40;;;5.10;;
462;SDS011;218;51.902;9.542;2022-08-01T15:20:33;4.57;;;4.37;;
462;SDS011;218;51.902;9.542;2022-08-01T15:23:00;5.47;;;5.13;;
462;SDS011;218;51.902;9.542;2022-08-01T15:25:27;6.43;;;5.83;;
462;SDS011;218;51.902;9.542;2022-08-01T15:27:55;5.47;;;5.07;;
462;SDS011;218;51.902;9.542;2022-08-01T15:30:22;5.00;;;4.70;;
462;SDS011;218;51.902;9.542;2022-08-01T15:32:49;4.70;;;4.40;;
462;SDS011;218;51.902;9.542;2022-08-01T15:35:17;5.40;;;5.00;;
462;SDS011;218;51.902;9.542;2022-08-01T15:37:45;5.83;;;5.33;;
462;SDS011;218;51.902;9.542;2022-08-01T15:40:12;4.60;;;4.27;;
462;SDS011;218;51.902;9.542;2022-08-01T15:42:40;4.97;;;4.67;;
462;SDS011;218;51.902;9.542;2022-08-01T15:45:07;6.33;;;5.83;;
462;SDS011;218;51.902;9.542;2022-08-01T15:47:35;5.60;;;5.10;;
462;SDS011;218;51.902;9.542;2022-08-01T15:50:02;5.00;;;4.70;;
462;SDS011;218;51.902;9.542;2022-08-01T15:52:29;4.83;;;4.50;;
462;SDS011;218;51.902;9.542;2022-08-01T15:54:58;5.97;;;5.57;;
462;SDS011;218;51.902;9.542;2022-08-01T15:57:25;6.00;;;5.50;;
462;SDS011;218;51.902;9.542;2022-08-01T15:59:52;5.57;;;5.17;;
462;SDS011;218;51.902;9.542;2022-08-01T16:02:19;5.50;;;5.00;;
462;SDS011;218;51.902;9.542;2022-08-01T16:04:46;5.20;;;4.90;;
462;SDS011;218;51.902;9.542;2022-08-01T16:07:13;5.27;;;4.87;;